Time,TemperatureF,DewpointF,PressureIn,WindDirection,WindDirectionDegrees,WindSpeedMPH,WindSpeedGustMPH,Humidity,HourlyPrecipIn,Conditions,Clouds,dailyrainin,SoftwareType,DateUTC
2013-04-14 00:07:00,58.3,36.0,30.00,ESE,115,0.0,4.0,44,0.00,,,0.03,weatherlink.com 1.10,2013-04-14 04:07:00,
2013-04-14 00:22:00,58.9,37.0,30.00,NE,54,0.0,3.0,44,0.00,,,0.03,weatherlink.com 1.10,2013-04-14 04:22:00,
2013-04-14 00:37:00,57.8,37.0,30.00,NE,55,0.0,1.0,46,0.00,,,0.03,weatherlink.com 1.10,2013-04-14 04:37:00,
2013-04-14 00:52:00,57.3,36.0,30.01,NE,54,0.0,3.0,46,0.00,,,0.03,weatherlink.com 1.10,2013-04-14 04:52:00,
2013-04-14 01:07:00,56.7,36.0,30.01,NE,54,0.0,2.0,47,0.00,,,0.03,weatherlink.com 1.10,2013-04-14 05:07:00,
2013-04-14 01:22:00,55.9,37.0,30.01,NE,54,1.0,1.0,49,0.00,,,0.00,weatherlink.com 1.10,2013-04-14 05:22:00,
2013-04-14 01:37:00,55.0,37.0,30.02,NE,54,0.0,0.0,52,0.00,,,0.00,weatherlink.com 1.10,2013-04-14 05:37:00,
2013-04-14 01:52:00,53.6,36.0,30.02,NE,54,0.0,0.0,52,0.00,,,0.00,weatherlink.com 1.10,2013-04-14 05:52:00,
2013-04-14 02:07:00,54.0,36.0,30.02,NE,54,0.0,0.0,51,0.00,,,0.00,weatherlink.com 1.10,2013-04-14 06:07:00,
2013-04-14 02:22:00,53.8,37.0,30.02,NE,54,0.0,1.0,53,0.00,,,0.00,weatherlink.com 1.10,2013-04-14 06:22:00,
2013-04-14 02:37:00,52.8,36.0,30.02,NE,54,0.0,0.0,54,0.00,,,0.00,weatherlink.com 1.10,2013-04-14 06:37:00,
2013-04-14 02:52:00,51.6,36.0,30.01,NE,54,0.0,1.0,55,0.00,,,0.00,weatherlink.com 1.10,2013-04-14 06:52:00,
2013-04-14 03:07:00,51.6,38.0,30.01,NE,54,0.0,0.0,60,0.00,,,0.00,weatherlink.com 1.10,2013-04-14 07:07:00,
2013-04-14 03:22:00,51.2,38.0,30.01,NE,54,0.0,2.0,62,0.00,,,0.00,weatherlink.com 1.10,2013-04-14 07:22:00,
2013-04-14 03:37:00,49.9,38.0,30.01,NE,54,1.0,1.0,64,0.00,,,0.00,weatherlink.com 1.10,2013-04-14 07:37:00,
2013-04-14 03:52:00,49.7,37.0,30.01,NE,54,1.0,2.0,62,0.00,,,0.00,weatherlink.com 1.10,2013-04-14 07:52:00,
2013-04-14 04:07:00,50.0,38.0,30.01,NE,54,0.0,1.0,63,0.00,,,0.00,weatherlink.com 1.10,2013-04-14 08:07:00,
2013-04-14 04:22:00,49.6,37.0,30.01,NE,54,0.0,1.0,63,0.00,,,0.00,weatherlink.com 1.10,2013-04-14 08:22:00,
2013-04-14 04:37:00,49.2,38.0,30.01,NE,54,0.0,1.0,65,0.00,,,0.00,weatherlink.com 1.10,2013-04-14 08:37:00,
2013-04-14 04:52:00,49.1,38.0,30.01,NE,54,0.0,2.0,65,0.00,,,0.00,weatherlink.com 1.10,2013-04-14 08:52:00,
2013-04-14 05:07:00,48.8,38.0,30.02,NE,54,0.0,1.0,67,0.00,,,0.00,weatherlink.com 1.10,2013-04-14 09:07:00,
2013-04-14 05:22:00,48.5,38.0,30.02,NE,54,0.0,0.0,67,0.00,,,0.00,weatherlink.com 1.10,2013-04-14 09:22:00,
2013-04-14 05:37:00,47.9,37.0,30.01,NE,54,0.0,0.0,67,0.00,,,0.00,weatherlink.com 1.10,2013-04-14 09:37:00,
2013-04-14 05:52:00,47.7,37.0,30.01,NE,54,0.0,0.0,66,0.00,,,0.00,weatherlink.com 1.10,2013-04-14 09:52:00,
2013-04-14 06:07:00,48.1,37.0,30.01,NE,54,0.0,0.0,65,0.00,,,0.00,weatherlink.com 1.10,2013-04-14 10:07:00,
2013-04-14 06:22:00,48.2,37.0,30.01,NE,54,0.0,0.0,65,0.00,,,0.00,weatherlink.com 1.10,2013-04-14 10:22:00,
2013-04-14 06:37:00,47.4,38.0,30.02,NE,54,0.0,0.0,70,0.00,,,0.00,weatherlink.com 1.10,2013-04-14 10:37:00,
2013-04-14 06:52:00,45.6,37.0,30.03,NE,54,0.0,1.0,73,0.00,,,0.00,weatherlink.com 1.10,2013-04-14 10:52:00,
2013-04-14 07:07:00,45.2,37.0,30.04,NE,54,0.0,2.0,73,0.00,,,0.00,weatherlink.com 1.10,2013-04-14 11:07:00,
2013-04-14 07:22:00,45.5,37.0,30.05,NE,54,0.0,1.0,72,0.00,,,0.00,weatherlink.com 1.10,2013-04-14 11:22:00,
2013-04-14 07:37:00,46.1,37.0,30.05,NE,54,0.0,1.0,71,0.00,,,0.00,weatherlink.com 1.10,2013-04-14 11:37:00,
2013-04-14 07:52:00,47.0,39.0,30.06,NE,54,0.0,0.0,73,0.00,,,0.00,weatherlink.com 1.10,2013-04-14 11:52:00,
2013-04-14 08:07:00,47.8,40.0,30.06,NE,54,1.0,1.0,74,0.00,,,0.00,weatherlink.com 1.10,2013-04-14 12:07:00,
2013-04-14 08:22:00,51.6,38.0,30.06,ENE,70,1.0,4.0,61,0.00,,,0.00,weatherlink.com 1.10,2013-04-14 12:22:00,
2013-04-14 08:37:00,54.1,40.0,30.06,NNE,23,0.0,2.0,59,0.00,,,0.00,weatherlink.com 1.10,2013-04-14 12:37:00,
2013-04-14 08:53:00,57.0,41.0,30.06,ENE,67,1.0,3.0,55,0.00,,,0.00,weatherlink.com 1.10,2013-04-14 12:53:00,
2013-04-14 09:08:00,58.9,41.0,30.06,ENE,60,0.0,4.0,51,0.00,,,0.00,weatherlink.com 1.10,2013-04-14 13:08:00,
2013-04-14 09:23:00,61.2,43.0,30.07,ENE,60,0.0,1.0,52,0.00,,,0.00,weatherlink.com 1.10,2013-04-14 13:23:00,
2013-04-14 09:38:00,62.3,43.0,30.07,ENE,60,0.0,1.0,50,0.00,,,0.00,weatherlink.com 1.10,2013-04-14 13:38:00,
2013-04-14 09:53:00,64.8,40.0,30.07,ESE,107,0.0,4.0,41,0.00,,,0.00,weatherlink.com 1.10,2013-04-14 13:53:00,
2013-04-14 10:08:00,66.1,40.0,30.07,ESE,107,0.0,2.0,38,0.00,,,0.00,weatherlink.com 1.10,2013-04-14 14:08:00,
2013-04-14 10:23:00,67.5,41.0,30.06,SSE,160,2.0,8.0,38,0.00,,,0.00,weatherlink.com 1.10,2013-04-14 14:23:00,
2013-04-14 10:38:00,67.7,39.0,30.05,SSE,166,3.0,5.0,35,0.00,,,0.00,weatherlink.com 1.10,2013-04-14 14:38:00,
2013-04-14 10:53:00,68.8,39.0,30.05,ESE,123,2.0,5.0,34,0.00,,,0.00,weatherlink.com 1.10,2013-04-14 14:53:00,
2013-04-14 11:08:00,68.6,40.0,30.05,SSE,164,5.0,6.0,35,0.00,,,0.00,weatherlink.com 1.10,2013-04-14 15:08:00,
2013-04-14 11:23:00,69.1,39.0,30.06,South,191,4.0,7.0,34,0.00,,,0.00,weatherlink.com 1.10,2013-04-14 15:23:00,
2013-04-14 11:38:00,69.0,39.0,30.05,SSE,167,2.0,7.0,33,0.00,,,0.00,weatherlink.com 1.10,2013-04-14 15:38:00,
2013-04-14 11:53:00,69.6,41.0,30.06,South,176,1.0,7.0,35,0.00,,,0.00,weatherlink.com 1.10,2013-04-14 15:53:00,
2013-04-14 12:08:00,70.8,40.0,30.05,East,100,3.0,8.0,33,0.00,,,0.00,weatherlink.com 1.10,2013-04-14 16:08:00,
2013-04-14 12:23:00,70.9,43.0,30.05,South,181,3.0,7.0,36,0.00,,,0.00,weatherlink.com 1.10,2013-04-14 16:23:00,
2013-04-14 12:38:00,71.4,42.0,30.05,ESE,122,1.0,4.0,34,0.00,,,0.00,weatherlink.com 1.10,2013-04-14 16:38:00,
2013-04-14 12:53:00,71.2,42.0,30.04,South,181,5.0,12.0,35,0.00,,,0.00,weatherlink.com 1.10,2013-04-14 16:53:00,
2013-04-14 13:08:00,71.7,44.0,30.04,WSW,249,4.0,7.0,37,0.00,,,0.00,weatherlink.com 1.10,2013-04-14 17:08:00,
2013-04-14 13:23:00,71.7,42.0,30.03,South,183,3.0,8.0,34,0.00,,,0.00,weatherlink.com 1.10,2013-04-14 17:23:00,
2013-04-14 13:38:00,71.9,45.0,30.02,WSW,243,5.0,7.0,38,0.00,,,0.00,weatherlink.com 1.10,2013-04-14 17:38:00,
2013-04-14 13:53:00,72.3,44.0,30.02,South,172,6.0,7.0,36,0.00,,,0.00,weatherlink.com 1.10,2013-04-14 17:53:00,
2013-04-14 14:08:00,71.8,44.0,30.02,SW,214,7.0,12.0,37,0.00,,,0.00,weatherlink.com 1.10,2013-04-14 18:08:00,
2013-04-14 14:23:00,71.3,44.0,30.02,SSW,193,4.0,13.0,38,0.00,,,0.00,weatherlink.com 1.10,2013-04-14 18:23:00,
2013-04-14 14:38:00,71.1,45.0,30.01,South,183,10.0,11.0,39,0.00,,,0.00,weatherlink.com 1.10,2013-04-14 18:38:00,
2013-04-14 14:53:00,70.9,44.0,30.01,South,181,6.0,11.0,38,0.00,,,0.00,weatherlink.com 1.10,2013-04-14 18:53:00,
2013-04-14 15:08:00,70.4,45.0,30.01,South,190,6.0,12.0,40,0.00,,,0.00,weatherlink.com 1.10,2013-04-14 19:08:00,
2013-04-14 15:23:00,70.3,45.0,30.02,SSW,212,6.0,8.0,41,0.00,,,0.00,weatherlink.com 1.10,2013-04-14 19:23:00,
2013-04-14 15:38:00,70.1,45.0,30.01,SSW,206,5.0,10.0,41,0.00,,,0.00,weatherlink.com 1.10,2013-04-14 19:38:00,
2013-04-14 15:53:00,69.8,46.0,30.01,SSW,199,3.0,11.0,42,0.00,,,0.00,weatherlink.com 1.10,2013-04-14 19:53:00,
2013-04-14 16:08:00,69.6,46.0,30.01,SSW,193,4.0,9.0,43,0.00,,,0.00,weatherlink.com 1.10,2013-04-14 20:08:00,
2013-04-14 16:23:00,69.2,46.0,30.01,South,187,4.0,10.0,44,0.00,,,0.00,weatherlink.com 1.10,2013-04-14 20:23:00,
2013-04-14 16:38:00,69.0,47.0,30.01,WSW,248,5.0,7.0,45,0.00,,,0.00,weatherlink.com 1.10,2013-04-14 20:38:00,
2013-04-14 16:53:00,68.6,47.0,30.01,SW,222,5.0,10.0,46,0.00,,,0.00,weatherlink.com 1.10,2013-04-14 20:53:00,
2013-04-14 17:08:00,68.1,48.0,30.01,SW,220,3.0,7.0,48,0.00,,,0.00,weatherlink.com 1.10,2013-04-14 21:08:00,
2013-04-14 17:23:00,67.9,49.0,30.01,WSW,239,0.0,6.0,51,0.00,,,0.00,weatherlink.com 1.10,2013-04-14 21:23:00,
2013-04-14 17:38:00,67.7,49.0,30.00,SSW,212,1.0,2.0,51,0.00,,,0.00,weatherlink.com 1.10,2013-04-14 21:38:00,
2013-04-14 17:53:00,67.5,49.0,30.00,SSW,212,1.0,2.0,51,0.00,,,0.00,weatherlink.com 1.10,2013-04-14 21:53:00,
2013-04-14 18:08:00,67.4,49.0,30.00,SSW,212,0.0,2.0,52,0.00,,,0.00,weatherlink.com 1.10,2013-04-14 22:08:00,
2013-04-14 18:23:00,67.5,49.0,29.99,SSW,212,0.0,1.0,52,0.00,,,0.00,weatherlink.com 1.10,2013-04-14 22:23:00,
2013-04-14 18:39:00,67.3,49.0,29.98,SSW,212,0.0,1.0,53,0.00,,,0.00,weatherlink.com 1.10,2013-04-14 22:39:00,
2013-04-14 18:54:00,67.0,50.0,29.98,SSW,212,0.0,1.0,55,0.00,,,0.00,weatherlink.com 1.10,2013-04-14 22:54:00,
2013-04-14 19:09:00,66.6,50.0,29.97,SSW,212,0.0,0.0,56,0.00,,,0.00,weatherlink.com 1.10,2013-04-14 23:09:00,
2013-04-14 19:24:00,66.3,50.0,29.96,SSW,212,0.0,3.0,57,0.00,,,0.00,weatherlink.com 1.10,2013-04-14 23:24:00,
2013-04-14 19:39:00,65.9,50.0,29.96,SSW,212,1.0,3.0,57,0.00,,,0.00,weatherlink.com 1.10,2013-04-14 23:39:00,
2013-04-14 19:54:00,65.6,48.0,29.95,SSW,203,4.0,9.0,54,0.00,,,0.00,weatherlink.com 1.10,2013-04-14 23:54:00,
2013-04-14 20:09:00,65.2,48.0,29.94,SSE,158,1.0,5.0,54,0.00,,,0.00,weatherlink.com 1.10,2013-04-15 00:09:00,
2013-04-14 20:24:00,64.8,49.0,29.95,South,175,2.0,7.0,56,0.00,,,0.00,weatherlink.com 1.10,2013-04-15 00:24:00,
2013-04-14 20:39:00,64.5,49.0,29.96,SW,220,9.0,9.0,57,0.00,,,0.00,weatherlink.com 1.10,2013-04-15 00:39:00,
2013-04-14 20:54:00,63.5,50.0,29.97,SW,219,7.0,9.0,61,0.01,,,0.01,weatherlink.com 1.10,2013-04-15 00:54:00,
2013-04-14 21:09:00,62.9,50.0,29.99,SSW,213,5.0,9.0,64,0.01,,,0.01,weatherlink.com 1.10,2013-04-15 01:09:00,
2013-04-14 21:24:00,62.5,50.0,29.99,SW,234,3.0,7.0,65,0.01,,,0.01,weatherlink.com 1.10,2013-04-15 01:24:00,
2013-04-14 21:39:00,62.3,51.0,30.00,WSW,249,2.0,5.0,66,0.01,,,0.01,weatherlink.com 1.10,2013-04-15 01:39:00,
2013-04-14 21:54:00,62.1,51.0,29.99,WNW,295,2.0,4.0,68,0.00,,,0.01,weatherlink.com 1.10,2013-04-15 01:54:00,
2013-04-14 22:09:00,61.6,51.0,30.00,WNW,295,2.0,4.0,68,0.00,,,0.01,weatherlink.com 1.10,2013-04-15 02:09:00,
2013-04-14 22:24:00,61.4,50.0,29.99,WNW,295,2.0,3.0,67,0.00,,,0.01,weatherlink.com 1.10,2013-04-15 02:24:00,
2013-04-14 22:39:00,61.4,50.0,29.98,WNW,295,2.0,2.0,67,0.00,,,0.01,weatherlink.com 1.10,2013-04-15 02:39:00,
2013-04-14 22:54:00,61.2,50.0,29.98,East,100,0.0,4.0,67,0.00,,,0.01,weatherlink.com 1.10,2013-04-15 02:54:00,
2013-04-14 23:24:00,60.6,51.0,29.98,ESE,102,0.0,3.0,70,0.00,,,0.01,weatherlink.com 1.10,2013-04-15 03:24:00,
2013-04-14 23:39:00,60.2,51.0,29.99,South,174,0.0,10.0,72,0.00,,,0.01,weatherlink.com 1.10,2013-04-15 03:39:00,
2013-04-14 23:54:00,59.2,51.0,30.00,South,187,4.0,8.0,74,0.00,,,0.01,weatherlink.com 1.10,2013-04-15 03:54:00,